sensor_id;sensor_type;location;lat;lon;timestamp;temperature;humidity
21676;DHT22;10999;51.332;9.458;2023-02-26T00:00:32;-1.00;87.10
21676;DHT22;10999;51.332;9.458;2023-02-26T00:02:58;-1.00;87.20
21676;DHT22;10999;51.332;9.458;2023-02-26T00:05:25;-1.10;87.30
21676;DHT22;10999;51.332;9.458;2023-02-26T00:07:52;-1.20;87.40
21676;DHT22;10999;51.332;9.458;2023-02-26T00:10:19;-1.20;87.50
21676;DHT22;10999;51.332;9.458;2023-02-26T00:12:46;-1.30;87.50
21676;DHT22;10999;51.332;9.458;2023-02-26T00:15:14;-1.30;87.70
21676;DHT22;10999;51.332;9.458;2023-02-26T00:18:07;-1.30;87.90
21676;DHT22;10999;51.332;9.458;2023-02-26T00:20:36;-1.30;88.20
21676;DHT22;10999;51.332;9.458;2023-02-26T00:23:03;-1.40;88.90
21676;DHT22;10999;51.332;9.458;2023-02-26T00:25:29;-1.30;89.30
21676;DHT22;10999;51.332;9.458;2023-02-26T00:27:56;-1.30;89.50
21676;DHT22;10999;51.332;9.458;2023-02-26T00:30:23;-1.30;89.80
21676;DHT22;10999;51.332;9.458;2023-02-26T00:32:50;-1.20;90.00
21676;DHT22;10999;51.332;9.458;2023-02-26T00:35:17;-1.20;90.10
21676;DHT22;10999;51.332;9.458;2023-02-26T00:38:01;-1.20;90.20
21676;DHT22;10999;51.332;9.458;2023-02-26T00:40:44;-1.20;90.30
21676;DHT22;10999;51.332;9.458;2023-02-26T00:43:18;-1.10;90.20
21676;DHT22;10999;51.332;9.458;2023-02-26T00:51:20;-1.00;90.10
21676;DHT22;10999;51.332;9.458;2023-02-26T00:56:28;-1.00;90.00
21676;DHT22;10999;51.332;9.458;2023-02-26T00:58:55;-1.00;89.70
21676;DHT22;10999;51.332;9.458;2023-02-26T01:01:21;-1.00;89.40
21676;DHT22;10999;51.332;9.458;2023-02-26T01:03:48;-1.00;89.20
21676;DHT22;10999;51.332;9.458;2023-02-26T01:06:18;-1.00;89.00
21676;DHT22;10999;51.332;9.458;2023-02-26T01:11:39;-1.00;87.60
21676;DHT22;10999;51.332;9.458;2023-02-26T01:14:06;-1.00;87.10
21676;DHT22;10999;51.332;9.458;2023-02-26T01:16:40;-1.00;86.20
21676;DHT22;10999;51.332;9.458;2023-02-26T01:19:17;-1.10;85.50
21676;DHT22;10999;51.332;9.458;2023-02-26T01:21:49;-1.10;84.80
21676;DHT22;10999;51.332;9.458;2023-02-26T01:24:19;-1.20;84.30
21676;DHT22;10999;51.332;9.458;2023-02-26T01:26:48;-1.20;83.80
21676;DHT22;10999;51.332;9.458;2023-02-26T01:29:16;-1.30;83.50
21676;DHT22;10999;51.332;9.458;2023-02-26T01:32:00;-1.30;83.50
21676;DHT22;10999;51.332;9.458;2023-02-26T01:34:57;-1.30;83.20
21676;DHT22;10999;51.332;9.458;2023-02-26T01:44:18;-1.40;81.90
21676;DHT22;10999;51.332;9.458;2023-02-26T01:46:57;-1.50;81.40
21676;DHT22;10999;51.332;9.458;2023-02-26T01:49:26;-1.50;81.30
21676;DHT22;10999;51.332;9.458;2023-02-26T01:52:02;-1.50;81.30
21676;DHT22;10999;51.332;9.458;2023-02-26T01:54:30;-1.50;81.30
21676;DHT22;10999;51.332;9.458;2023-02-26T01:57:01;-1.50;81.20
21676;DHT22;10999;51.332;9.458;2023-02-26T01:59:40;-1.50;81.00
21676;DHT22;10999;51.332;9.458;2023-02-26T02:02:09;-1.50;81.30
21676;DHT22;10999;51.332;9.458;2023-02-26T02:04:37;-1.50;81.30
21676;DHT22;10999;51.332;9.458;2023-02-26T02:07:05;-1.40;80.90
21676;DHT22;10999;51.332;9.458;2023-02-26T02:09:32;-1.40;80.80
21676;DHT22;10999;51.332;9.458;2023-02-26T02:18:03;-1.40;80.50
21676;DHT22;10999;51.332;9.458;2023-02-26T02:21:05;-1.40;80.30
21676;DHT22;10999;51.332;9.458;2023-02-26T02:23:44;-1.40;79.90
21676;DHT22;10999;51.332;9.458;2023-02-26T02:26:38;-1.40;80.10
21676;DHT22;10999;51.332;9.458;2023-02-26T02:29:48;-1.40;80.30
21676;DHT22;10999;51.332;9.458;2023-02-26T02:32:27;-1.40;80.20
21676;DHT22;10999;51.332;9.458;2023-02-26T02:35:22;-1.40;80.10
21676;DHT22;10999;51.332;9.458;2023-02-26T02:38:10;-1.50;80.10
21676;DHT22;10999;51.332;9.458;2023-02-26T02:40:42;-1.50;80.10
21676;DHT22;10999;51.332;9.458;2023-02-26T02:43:14;-1.60;79.90
21676;DHT22;10999;51.332;9.458;2023-02-26T02:45:51;-1.60;79.90
21676;DHT22;10999;51.332;9.458;2023-02-26T02:50:51;-1.60;80.30
21676;DHT22;10999;51.332;9.458;2023-02-26T02:53:27;-1.60;80.50
21676;DHT22;10999;51.332;9.458;2023-02-26T02:56:04;-1.60;80.60
21676;DHT22;10999;51.332;9.458;2023-02-26T02:58:38;-1.60;80.60
21676;DHT22;10999;51.332;9.458;2023-02-26T03:01:07;-1.70;80.80
21676;DHT22;10999;51.332;9.458;2023-02-26T03:03:46;-1.70;81.20
21676;DHT22;10999;51.332;9.458;2023-02-26T03:06:15;-1.70;81.60
21676;DHT22;10999;51.332;9.458;2023-02-26T03:08:45;-1.70;81.90
21676;DHT22;10999;51.332;9.458;2023-02-26T03:11:12;-1.60;82.00
21676;DHT22;10999;51.332;9.458;2023-02-26T03:13:39;-1.60;82.10
21676;DHT22;10999;51.332;9.458;2023-02-26T03:21:52;-1.50;83.90
21676;DHT22;10999;51.332;9.458;2023-02-26T03:32:42;-1.40;83.70
21676;DHT22;10999;51.332;9.458;2023-02-26T03:35:14;-1.40;83.60
21676;DHT22;10999;51.332;9.458;2023-02-26T03:37:52;-1.30;83.40
21676;DHT22;10999;51.332;9.458;2023-02-26T03:40:45;-1.30;83.40
21676;DHT22;10999;51.332;9.458;2023-02-26T03:43:22;-1.30;83.50
21676;DHT22;10999;51.332;9.458;2023-02-26T03:45:51;-1.30;83.30
21676;DHT22;10999;51.332;9.458;2023-02-26T03:48:23;-1.20;83.40
21676;DHT22;10999;51.332;9.458;2023-02-26T03:50:56;-1.30;83.50
21676;DHT22;10999;51.332;9.458;2023-02-26T03:53:39;-1.20;83.40
21676;DHT22;10999;51.332;9.458;2023-02-26T03:58:51;-1.20;83.70
21676;DHT22;10999;51.332;9.458;2023-02-26T04:01:19;-1.20;83.80
21676;DHT22;10999;51.332;9.458;2023-02-26T04:04:00;-1.20;84.00
21676;DHT22;10999;51.332;9.458;2023-02-26T04:06:29;-1.20;84.50
21676;DHT22;10999;51.332;9.458;2023-02-26T04:08:56;-1.30;84.80
21676;DHT22;10999;51.332;9.458;2023-02-26T04:11:24;-1.30;85.20
21676;DHT22;10999;51.332;9.458;2023-02-26T04:13:51;-1.20;85.10
21676;DHT22;10999;51.332;9.458;2023-02-26T04:16:18;-1.30;85.20
21676;DHT22;10999;51.332;9.458;2023-02-26T04:18:45;-1.30;85.20
21676;DHT22;10999;51.332;9.458;2023-02-26T04:21:12;-1.40;85.20
21676;DHT22;10999;51.332;9.458;2023-02-26T04:23:40;-1.40;85.20
21676;DHT22;10999;51.332;9.458;2023-02-26T04:26:07;-1.50;85.40
21676;DHT22;10999;51.332;9.458;2023-02-26T04:28:33;-1.50;85.40
21676;DHT22;10999;51.332;9.458;2023-02-26T04:31:04;-1.50;85.50
21676;DHT22;10999;51.332;9.458;2023-02-26T04:33:31;-1.60;85.40
21676;DHT22;10999;51.332;9.458;2023-02-26T04:35:59;-1.50;85.60
21676;DHT22;10999;51.332;9.458;2023-02-26T04:38:26;-1.60;85.60
21676;DHT22;10999;51.332;9.458;2023-02-26T04:40:53;-1.60;85.90
21676;DHT22;10999;51.332;9.458;2023-02-26T04:43:20;-1.70;86.00
21676;DHT22;10999;51.332;9.458;2023-02-26T04:45:47;-1.70;86.20
21676;DHT22;10999;51.332;9.458;2023-02-26T04:48:15;-1.70;86.60
21676;DHT22;10999;51.332;9.458;2023-02-26T04:50:43;-1.60;87.00
21676;DHT22;10999;51.332;9.458;2023-02-26T04:53:10;-1.70;87.20
21676;DHT22;10999;51.332;9.458;2023-02-26T04:55:36;-1.60;87.50
21676;DHT22;10999;51.332;9.458;2023-02-26T04:58:03;-1.60;87.70
21676;DHT22;10999;51.332;9.458;2023-02-26T05:00:30;-1.50;88.10
21676;DHT22;10999;51.332;9.458;2023-02-26T05:02:56;-1.60;87.90
21676;DHT22;10999;51.332;9.458;2023-02-26T05:05:24;-1.50;88.20
21676;DHT22;10999;51.332;9.458;2023-02-26T05:07:51;-1.50;88.20
21676;DHT22;10999;51.332;9.458;2023-02-26T05:10:21;-1.50;88.40
21676;DHT22;10999;51.332;9.458;2023-02-26T05:12:48;-1.50;88.40
21676;DHT22;10999;51.332;9.458;2023-02-26T05:15:15;-1.50;88.30
21676;DHT22;10999;51.332;9.458;2023-02-26T05:17:41;-1.50;88.20
21676;DHT22;10999;51.332;9.458;2023-02-26T05:20:09;-1.50;88.20
21676;DHT22;10999;51.332;9.458;2023-02-26T05:22:37;-1.50;88.30
21676;DHT22;10999;51.332;9.458;2023-02-26T05:25:05;-1.60;88.20
21676;DHT22;10999;51.332;9.458;2023-02-26T05:27:33;-1.50;88.30
21676;DHT22;10999;51.332;9.458;2023-02-26T05:30:00;-1.50;88.20
21676;DHT22;10999;51.332;9.458;2023-02-26T05:32:26;-1.50;88.00
21676;DHT22;10999;51.332;9.458;2023-02-26T05:34:53;-1.50;87.90
21676;DHT22;10999;51.332;9.458;2023-02-26T05:37:20;-1.50;87.80
21676;DHT22;10999;51.332;9.458;2023-02-26T05:39:47;-1.60;87.60
21676;DHT22;10999;51.332;9.458;2023-02-26T05:42:13;-1.50;87.50
21676;DHT22;10999;51.332;9.458;2023-02-26T05:44:40;-1.50;87.40
21676;DHT22;10999;51.332;9.458;2023-02-26T05:47:07;-1.50;87.50
21676;DHT22;10999;51.332;9.458;2023-02-26T05:49:33;-1.50;87.20
21676;DHT22;10999;51.332;9.458;2023-02-26T05:52:00;-1.50;87.00
21676;DHT22;10999;51.332;9.458;2023-02-26T05:54:27;-1.50;86.90
21676;DHT22;10999;51.332;9.458;2023-02-26T05:56:54;-1.50;86.60
21676;DHT22;10999;51.332;9.458;2023-02-26T05:59:21;-1.50;86.60
21676;DHT22;10999;51.332;9.458;2023-02-26T06:01:48;-1.50;86.40
21676;DHT22;10999;51.332;9.458;2023-02-26T06:04:15;-1.40;86.30
21676;DHT22;10999;51.332;9.458;2023-02-26T06:06:41;-1.40;85.80
21676;DHT22;10999;51.332;9.458;2023-02-26T06:09:08;-1.40;85.50
21676;DHT22;10999;51.332;9.458;2023-02-26T06:11:34;-1.40;85.50
21676;DHT22;10999;51.332;9.458;2023-02-26T06:14:01;-1.40;85.30
21676;DHT22;10999;51.332;9.458;2023-02-26T06:16:28;-1.40;85.30
21676;DHT22;10999;51.332;9.458;2023-02-26T06:18:55;-1.40;85.00
21676;DHT22;10999;51.332;9.458;2023-02-26T06:21:22;-1.40;84.80
21676;DHT22;10999;51.332;9.458;2023-02-26T06:23:48;-1.30;84.70
21676;DHT22;10999;51.332;9.458;2023-02-26T06:26:15;-1.30;84.40
21676;DHT22;10999;51.332;9.458;2023-02-26T06:28:42;-1.30;84.20
21676;DHT22;10999;51.332;9.458;2023-02-26T06:31:08;-1.30;83.50
21676;DHT22;10999;51.332;9.458;2023-02-26T06:33:35;-1.30;83.20
21676;DHT22;10999;51.332;9.458;2023-02-26T06:36:02;-1.30;83.30
21676;DHT22;10999;51.332;9.458;2023-02-26T06:38:28;-1.30;83.10
21676;DHT22;10999;51.332;9.458;2023-02-26T06:40:55;-1.20;82.90
21676;DHT22;10999;51.332;9.458;2023-02-26T06:43:22;-1.20;82.70
21676;DHT22;10999;51.332;9.458;2023-02-26T06:45:48;-1.20;82.10
21676;DHT22;10999;51.332;9.458;2023-02-26T06:48:15;-1.20;81.70
21676;DHT22;10999;51.332;9.458;2023-02-26T06:50:42;-1.20;81.50
21676;DHT22;10999;51.332;9.458;2023-02-26T06:53:08;-1.20;80.90
21676;DHT22;10999;51.332;9.458;2023-02-26T06:55:35;-1.20;80.80
21676;DHT22;10999;51.332;9.458;2023-02-26T06:58:02;-1.20;80.60
21676;DHT22;10999;51.332;9.458;2023-02-26T07:00:28;-1.20;80.40
21676;DHT22;10999;51.332;9.458;2023-02-26T07:02:55;-1.10;80.00
21676;DHT22;10999;51.332;9.458;2023-02-26T07:05:23;-1.10;80.90
21676;DHT22;10999;51.332;9.458;2023-02-26T07:07:50;-1.00;79.90
21676;DHT22;10999;51.332;9.458;2023-02-26T07:10:17;-1.00;79.80
21676;DHT22;10999;51.332;9.458;2023-02-26T07:12:44;-0.90;80.00
21676;DHT22;10999;51.332;9.458;2023-02-26T07:15:10;-0.80;79.70
21676;DHT22;10999;51.332;9.458;2023-02-26T07:17:37;-0.80;79.30
21676;DHT22;10999;51.332;9.458;2023-02-26T07:20:04;-0.70;79.90
21676;DHT22;10999;51.332;9.458;2023-02-26T07:22:32;-0.60;79.90
21676;DHT22;10999;51.332;9.458;2023-02-26T07:24:59;-0.60;80.40
21676;DHT22;10999;51.332;9.458;2023-02-26T07:27:26;-0.50;80.50
21676;DHT22;10999;51.332;9.458;2023-02-26T07:29:53;-0.40;80.40
21676;DHT22;10999;51.332;9.458;2023-02-26T07:32:20;-0.40;79.70
21676;DHT22;10999;51.332;9.458;2023-02-26T07:34:47;-0.20;79.80
21676;DHT22;10999;51.332;9.458;2023-02-26T07:37:13;-0.10;79.00
21676;DHT22;10999;51.332;9.458;2023-02-26T07:39:40;0.00;78.80
21676;DHT22;10999;51.332;9.458;2023-02-26T07:42:07;0.00;77.60
21676;DHT22;10999;51.332;9.458;2023-02-26T07:44:34;0.10;76.70
21676;DHT22;10999;51.332;9.458;2023-02-26T07:47:01;0.20;75.90
21676;DHT22;10999;51.332;9.458;2023-02-26T07:49:28;0.20;75.60
21676;DHT22;10999;51.332;9.458;2023-02-26T07:51:55;0.30;75.90
21676;DHT22;10999;51.332;9.458;2023-02-26T07:54:22;0.30;75.40
21676;DHT22;10999;51.332;9.458;2023-02-26T07:56:49;0.30;75.40
21676;DHT22;10999;51.332;9.458;2023-02-26T07:59:16;0.30;76.30
21676;DHT22;10999;51.332;9.458;2023-02-26T08:01:42;0.40;75.20
21676;DHT22;10999;51.332;9.458;2023-02-26T08:04:09;0.40;76.10
21676;DHT22;10999;51.332;9.458;2023-02-26T08:06:36;0.40;74.80
21676;DHT22;10999;51.332;9.458;2023-02-26T08:09:03;0.50;74.30
21676;DHT22;10999;51.332;9.458;2023-02-26T08:11:31;0.50;74.50
21676;DHT22;10999;51.332;9.458;2023-02-26T08:14:06;0.50;74.70
21676;DHT22;10999;51.332;9.458;2023-02-26T08:16:33;0.50;74.50
21676;DHT22;10999;51.332;9.458;2023-02-26T08:19:00;0.70;73.50
21676;DHT22;10999;51.332;9.458;2023-02-26T08:21:27;0.90;73.30
21676;DHT22;10999;51.332;9.458;2023-02-26T08:23:53;1.20;73.90
21676;DHT22;10999;51.332;9.458;2023-02-26T08:26:20;1.10;69.60
21676;DHT22;10999;51.332;9.458;2023-02-26T08:28:47;1.10;67.60
21676;DHT22;10999;51.332;9.458;2023-02-26T08:31:14;1.10;69.80
21676;DHT22;10999;51.332;9.458;2023-02-26T08:33:42;1.10;70.80
21676;DHT22;10999;51.332;9.458;2023-02-26T08:36:09;1.10;67.00
21676;DHT22;10999;51.332;9.458;2023-02-26T08:38:36;0.90;61.90
21676;DHT22;10999;51.332;9.458;2023-02-26T08:41:03;0.70;59.70
21676;DHT22;10999;51.332;9.458;2023-02-26T08:43:29;0.60;58.60
21676;DHT22;10999;51.332;9.458;2023-02-26T08:45:57;0.60;59.40
21676;DHT22;10999;51.332;9.458;2023-02-26T08:48:23;0.70;60.40
21676;DHT22;10999;51.332;9.458;2023-02-26T08:50:50;0.80;58.70
21676;DHT22;10999;51.332;9.458;2023-02-26T08:53:17;0.80;58.20
21676;DHT22;10999;51.332;9.458;2023-02-26T08:55:47;0.80;57.20
21676;DHT22;10999;51.332;9.458;2023-02-26T08:58:14;0.90;58.80
21676;DHT22;10999;51.332;9.458;2023-02-26T09:00:41;1.00;56.80
21676;DHT22;10999;51.332;9.458;2023-02-26T09:03:08;1.10;57.70
21676;DHT22;10999;51.332;9.458;2023-02-26T09:05:35;1.70;59.30
21676;DHT22;10999;51.332;9.458;2023-02-26T09:08:02;2.30;57.00
21676;DHT22;10999;51.332;9.458;2023-02-26T09:10:29;2.60;50.80
21676;DHT22;10999;51.332;9.458;2023-02-26T09:12:56;2.70;50.20
21676;DHT22;10999;51.332;9.458;2023-02-26T09:15:22;2.80;48.80
21676;DHT22;10999;51.332;9.458;2023-02-26T09:17:49;2.70;49.90
21676;DHT22;10999;51.332;9.458;2023-02-26T09:20:17;2.60;51.40
21676;DHT22;10999;51.332;9.458;2023-02-26T09:22:44;2.70;52.30
21676;DHT22;10999;51.332;9.458;2023-02-26T09:25:10;3.30;46.20
21676;DHT22;10999;51.332;9.458;2023-02-26T09:27:37;4.00;46.60
21676;DHT22;10999;51.332;9.458;2023-02-26T09:30:05;4.80;45.80
21676;DHT22;10999;51.332;9.458;2023-02-26T09:32:32;5.40;41.60
21676;DHT22;10999;51.332;9.458;2023-02-26T09:34:59;6.20;40.60
21676;DHT22;10999;51.332;9.458;2023-02-26T09:37:25;6.80;30.70
21676;DHT22;10999;51.332;9.458;2023-02-26T09:39:53;6.90;32.50
21676;DHT22;10999;51.332;9.458;2023-02-26T09:45:02;7.60;26.50
21676;DHT22;10999;51.332;9.458;2023-02-26T09:47:34;7.30;28.00
21676;DHT22;10999;51.332;9.458;2023-02-26T09:50:18;6.90;25.80
21676;DHT22;10999;51.332;9.458;2023-02-26T09:55:44;7.00;29.10
21676;DHT22;10999;51.332;9.458;2023-02-26T09:58:29;7.00;27.70
21676;DHT22;10999;51.332;9.458;2023-02-26T10:03:58;5.60;28.60
21676;DHT22;10999;51.332;9.458;2023-02-26T10:09:24;4.30;36.10
21676;DHT22;10999;51.332;9.458;2023-02-26T10:20:27;3.00;38.20
21676;DHT22;10999;51.332;9.458;2023-02-26T10:23:06;2.90;41.60
21676;DHT22;10999;51.332;9.458;2023-02-26T10:25:51;2.80;42.00
21676;DHT22;10999;51.332;9.458;2023-02-26T10:31:11;2.70;42.00
21676;DHT22;10999;51.332;9.458;2023-02-26T10:39:41;2.60;42.80
21676;DHT22;10999;51.332;9.458;2023-02-26T10:42:11;2.30;43.30
21676;DHT22;10999;51.332;9.458;2023-02-26T10:47:40;2.10;43.80
21676;DHT22;10999;51.332;9.458;2023-02-26T10:50:13;2.10;45.20
21676;DHT22;10999;51.332;9.458;2023-02-26T10:52:43;2.00;44.10
21676;DHT22;10999;51.332;9.458;2023-02-26T10:58:12;1.90;42.90
21676;DHT22;10999;51.332;9.458;2023-02-26T11:00:42;2.00;42.90
21676;DHT22;10999;51.332;9.458;2023-02-26T11:03:16;1.90;39.80
21676;DHT22;10999;51.332;9.458;2023-02-26T11:05:44;1.90;40.60
21676;DHT22;10999;51.332;9.458;2023-02-26T11:08:20;2.00;42.90
21676;DHT22;10999;51.332;9.458;2023-02-26T11:10:56;2.20;42.20
21676;DHT22;10999;51.332;9.458;2023-02-26T11:13:26;2.30;42.60
21676;DHT22;10999;51.332;9.458;2023-02-26T11:15:55;2.30;41.30
21676;DHT22;10999;51.332;9.458;2023-02-26T11:18:35;2.40;40.00
21676;DHT22;10999;51.332;9.458;2023-02-26T11:21:05;2.50;41.80
21676;DHT22;10999;51.332;9.458;2023-02-26T11:23:33;2.60;41.00
21676;DHT22;10999;51.332;9.458;2023-02-26T11:26:06;2.60;40.20
21676;DHT22;10999;51.332;9.458;2023-02-26T11:28:37;2.60;41.00
21676;DHT22;10999;51.332;9.458;2023-02-26T11:31:10;2.60;42.00
21676;DHT22;10999;51.332;9.458;2023-02-26T11:33:42;2.50;37.10
21676;DHT22;10999;51.332;9.458;2023-02-26T11:36:18;2.40;38.20
21676;DHT22;10999;51.332;9.458;2023-02-26T11:38:59;2.20;39.30
21676;DHT22;10999;51.332;9.458;2023-02-26T11:41:27;2.20;41.20
21676;DHT22;10999;51.332;9.458;2023-02-26T11:44:02;2.10;39.00
21676;DHT22;10999;51.332;9.458;2023-02-26T11:46:30;2.10;41.50
21676;DHT22;10999;51.332;9.458;2023-02-26T11:48:59;2.20;41.20
21676;DHT22;10999;51.332;9.458;2023-02-26T11:51:28;2.10;41.80
21676;DHT22;10999;51.332;9.458;2023-02-26T11:53:59;2.10;40.70
21676;DHT22;10999;51.332;9.458;2023-02-26T11:56:34;2.10;38.00
21676;DHT22;10999;51.332;9.458;2023-02-26T11:59:23;2.00;38.50
21676;DHT22;10999;51.332;9.458;2023-02-26T12:01:52;1.90;39.20
21676;DHT22;10999;51.332;9.458;2023-02-26T12:04:22;1.90;38.30
21676;DHT22;10999;51.332;9.458;2023-02-26T12:06:52;1.90;37.60
21676;DHT22;10999;51.332;9.458;2023-02-26T12:09:20;2.00;37.50
21676;DHT22;10999;51.332;9.458;2023-02-26T12:17:50;2.40;36.80
21676;DHT22;10999;51.332;9.458;2023-02-26T12:20:20;2.70;36.30
21676;DHT22;10999;51.332;9.458;2023-02-26T12:34:07;3.30;32.60
21676;DHT22;10999;51.332;9.458;2023-02-26T12:37:00;3.20;29.50
21676;DHT22;10999;51.332;9.458;2023-02-26T12:39:45;2.90;29.80
21676;DHT22;10999;51.332;9.458;2023-02-26T12:42:39;2.70;32.40
21676;DHT22;10999;51.332;9.458;2023-02-26T12:53:28;3.70;30.30
21676;DHT22;10999;51.332;9.458;2023-02-26T12:58:51;3.80;28.10
21676;DHT22;10999;51.332;9.458;2023-02-26T13:05:04;4.00;26.30
21676;DHT22;10999;51.332;9.458;2023-02-26T13:13:29;3.60;26.90
21676;DHT22;10999;51.332;9.458;2023-02-26T13:21:22;3.80;27.40
21676;DHT22;10999;51.332;9.458;2023-02-26T13:24:14;3.90;24.60
21676;DHT22;10999;51.332;9.458;2023-02-26T13:26:41;3.90;24.40
21676;DHT22;10999;51.332;9.458;2023-02-26T13:31:52;4.20;25.80
21676;DHT22;10999;51.332;9.458;2023-02-26T13:37:02;4.10;22.70
21676;DHT22;10999;51.332;9.458;2023-02-26T13:39:53;4.10;25.10
21676;DHT22;10999;51.332;9.458;2023-02-26T13:51:14;3.40;25.00
21676;DHT22;10999;51.332;9.458;2023-02-26T13:53:52;3.60;23.80
21676;DHT22;10999;51.332;9.458;2023-02-26T14:01:53;4.00;21.30
21676;DHT22;10999;51.332;9.458;2023-02-26T14:07:12;3.60;20.30
21676;DHT22;10999;51.332;9.458;2023-02-26T14:10:02;3.50;21.00
21676;DHT22;10999;51.332;9.458;2023-02-26T14:12:35;3.40;23.80
21676;DHT22;10999;51.332;9.458;2023-02-26T14:17:49;3.50;23.20
21676;DHT22;10999;51.332;9.458;2023-02-26T14:20:22;3.60;23.80
21676;DHT22;10999;51.332;9.458;2023-02-26T14:22:54;3.60;23.50
21676;DHT22;10999;51.332;9.458;2023-02-26T14:25:39;3.50;22.90
21676;DHT22;10999;51.332;9.458;2023-02-26T14:28:20;3.20;22.20
21676;DHT22;10999;51.332;9.458;2023-02-26T14:31:08;3.00;21.30
21676;DHT22;10999;51.332;9.458;2023-02-26T14:33:58;2.90;23.20
21676;DHT22;10999;51.332;9.458;2023-02-26T14:36:47;3.00;24.90
21676;DHT22;10999;51.332;9.458;2023-02-26T14:41:48;3.40;24.70
21676;DHT22;10999;51.332;9.458;2023-02-26T14:44:20;3.70;25.40
21676;DHT22;10999;51.332;9.458;2023-02-26T14:46:49;3.80;24.00
21676;DHT22;10999;51.332;9.458;2023-02-26T14:49:25;3.90;24.10
21676;DHT22;10999;51.332;9.458;2023-02-26T14:52:22;3.90;20.90
21676;DHT22;10999;51.332;9.458;2023-02-26T15:09:37;3.60;22.40
21676;DHT22;10999;51.332;9.458;2023-02-26T15:12:32;3.40;21.70
21676;DHT22;10999;51.332;9.458;2023-02-26T15:21:21;3.30;21.60
21676;DHT22;10999;51.332;9.458;2023-02-26T15:23:55;3.20;20.10
21676;DHT22;10999;51.332;9.458;2023-02-26T15:28:53;3.00;21.30
21676;DHT22;10999;51.332;9.458;2023-02-26T15:31:29;2.80;20.90
21676;DHT22;10999;51.332;9.458;2023-02-26T15:33:57;2.70;21.60
21676;DHT22;10999;51.332;9.458;2023-02-26T15:36:24;2.70;22.40
21676;DHT22;10999;51.332;9.458;2023-02-26T15:38:55;2.60;23.10
21676;DHT22;10999;51.332;9.458;2023-02-26T15:41:25;2.60;24.20
21676;DHT22;10999;51.332;9.458;2023-02-26T15:43:56;2.60;24.30
21676;DHT22;10999;51.332;9.458;2023-02-26T15:46:34;2.50;25.00
21676;DHT22;10999;51.332;9.458;2023-02-26T15:49:08;2.60;25.00
21676;DHT22;10999;51.332;9.458;2023-02-26T15:51:36;2.60;25.20
21676;DHT22;10999;51.332;9.458;2023-02-26T15:54:03;2.60;25.20
21676;DHT22;10999;51.332;9.458;2023-02-26T15:56:34;2.60;25.00
21676;DHT22;10999;51.332;9.458;2023-02-26T15:59:03;2.60;22.80
21676;DHT22;10999;51.332;9.458;2023-02-26T16:01:32;2.50;23.30
21676;DHT22;10999;51.332;9.458;2023-02-26T16:04:05;2.50;23.40
21676;DHT22;10999;51.332;9.458;2023-02-26T16:06:41;2.40;23.40
21676;DHT22;10999;51.332;9.458;2023-02-26T16:09:19;2.40;23.20
21676;DHT22;10999;51.332;9.458;2023-02-26T16:11:46;2.30;23.40
21676;DHT22;10999;51.332;9.458;2023-02-26T16:14:30;2.30;23.80
21676;DHT22;10999;51.332;9.458;2023-02-26T16:16:59;2.20;24.10
21676;DHT22;10999;51.332;9.458;2023-02-26T16:19:44;2.20;25.50
21676;DHT22;10999;51.332;9.458;2023-02-26T16:23:05;2.10;26.10
21676;DHT22;10999;51.332;9.458;2023-02-26T16:28:06;2.00;26.70
21676;DHT22;10999;51.332;9.458;2023-02-26T16:30:39;2.00;27.40
21676;DHT22;10999;51.332;9.458;2023-02-26T16:33:13;2.00;27.80
21676;DHT22;10999;51.332;9.458;2023-02-26T16:35:46;1.90;28.10
21676;DHT22;10999;51.332;9.458;2023-02-26T16:38:19;1.80;27.70
21676;DHT22;10999;51.332;9.458;2023-02-26T16:40:59;1.80;27.10
21676;DHT22;10999;51.332;9.458;2023-02-26T16:43:33;1.80;27.50
21676;DHT22;10999;51.332;9.458;2023-02-26T16:46:03;1.70;27.00
21676;DHT22;10999;51.332;9.458;2023-02-26T16:51:10;1.60;27.00
21676;DHT22;10999;51.332;9.458;2023-02-26T16:53:48;1.60;26.80
21676;DHT22;10999;51.332;9.458;2023-02-26T16:56:18;1.50;27.30
21676;DHT22;10999;51.332;9.458;2023-02-26T16:58:53;1.50;27.50
21676;DHT22;10999;51.332;9.458;2023-02-26T17:01:22;1.40;27.30
21676;DHT22;10999;51.332;9.458;2023-02-26T17:03:55;1.40;27.50
21676;DHT22;10999;51.332;9.458;2023-02-26T17:06:26;1.30;27.90
21676;DHT22;10999;51.332;9.458;2023-02-26T17:08:58;1.30;28.80
21676;DHT22;10999;51.332;9.458;2023-02-26T17:11:29;1.20;29.60
21676;DHT22;10999;51.332;9.458;2023-02-26T17:14:13;1.10;30.20
21676;DHT22;10999;51.332;9.458;2023-02-26T17:16:40;1.00;31.00
21676;DHT22;10999;51.332;9.458;2023-02-26T17:19:07;1.00;31.80
21676;DHT22;10999;51.332;9.458;2023-02-26T17:21:40;0.90;31.60
21676;DHT22;10999;51.332;9.458;2023-02-26T17:24:14;0.90;32.30
21676;DHT22;10999;51.332;9.458;2023-02-26T17:26:42;0.80;33.00
21676;DHT22;10999;51.332;9.458;2023-02-26T17:29:16;0.80;32.70
21676;DHT22;10999;51.332;9.458;2023-02-26T17:31:44;0.70;33.80
21676;DHT22;10999;51.332;9.458;2023-02-26T17:34:11;0.70;33.70
21676;DHT22;10999;51.332;9.458;2023-02-26T17:36:38;0.60;34.70
21676;DHT22;10999;51.332;9.458;2023-02-26T17:39:05;0.60;34.60
21676;DHT22;10999;51.332;9.458;2023-02-26T17:41:32;0.60;34.70
21676;DHT22;10999;51.332;9.458;2023-02-26T17:43:59;0.50;35.80
21676;DHT22;10999;51.332;9.458;2023-02-26T17:46:26;0.50;35.60
21676;DHT22;10999;51.332;9.458;2023-02-26T17:48:53;0.40;35.90
21676;DHT22;10999;51.332;9.458;2023-02-26T17:51:19;0.40;36.10
21676;DHT22;10999;51.332;9.458;2023-02-26T17:53:46;0.30;36.80
21676;DHT22;10999;51.332;9.458;2023-02-26T17:56:30;0.20;37.10
21676;DHT22;10999;51.332;9.458;2023-02-26T17:58:58;0.20;37.70
21676;DHT22;10999;51.332;9.458;2023-02-26T18:01:24;0.20;38.30
21676;DHT22;10999;51.332;9.458;2023-02-26T18:03:56;0.10;38.80
21676;DHT22;10999;51.332;9.458;2023-02-26T18:06:23;0.10;39.00
21676;DHT22;10999;51.332;9.458;2023-02-26T18:08:50;0.10;39.20
21676;DHT22;10999;51.332;9.458;2023-02-26T18:11:17;0.10;38.60
21676;DHT22;10999;51.332;9.458;2023-02-26T18:13:46;0.20;38.70
21676;DHT22;10999;51.332;9.458;2023-02-26T18:16:18;0.20;38.70
21676;DHT22;10999;51.332;9.458;2023-02-26T18:18:46;0.20;38.30
21676;DHT22;10999;51.332;9.458;2023-02-26T18:21:12;0.30;37.90
21676;DHT22;10999;51.332;9.458;2023-02-26T18:23:40;0.40;37.50
21676;DHT22;10999;51.332;9.458;2023-02-26T18:26:09;0.40;37.60
21676;DHT22;10999;51.332;9.458;2023-02-26T18:28:36;0.40;37.70
21676;DHT22;10999;51.332;9.458;2023-02-26T18:31:02;0.40;37.80
21676;DHT22;10999;51.332;9.458;2023-02-26T18:33:34;0.40;37.90
21676;DHT22;10999;51.332;9.458;2023-02-26T18:36:04;0.40;38.10
21676;DHT22;10999;51.332;9.458;2023-02-26T18:38:31;0.40;37.40
21676;DHT22;10999;51.332;9.458;2023-02-26T18:40:58;0.40;37.70
21676;DHT22;10999;51.332;9.458;2023-02-26T18:43:28;0.30;38.10
21676;DHT22;10999;51.332;9.458;2023-02-26T18:45:54;0.40;38.50
21676;DHT22;10999;51.332;9.458;2023-02-26T18:48:22;0.40;38.20
21676;DHT22;10999;51.332;9.458;2023-02-26T18:50:49;0.40;38.70
21676;DHT22;10999;51.332;9.458;2023-02-26T18:53:16;0.30;39.00
21676;DHT22;10999;51.332;9.458;2023-02-26T18:55:44;0.40;39.20
21676;DHT22;10999;51.332;9.458;2023-02-26T18:58:10;0.30;39.60
21676;DHT22;10999;51.332;9.458;2023-02-26T19:00:38;0.30;39.90